Time;durP1;ratioP1;P1;durP2;ratioP2;P2;SDS_P1;SDS_P2;PMS_P1;PMS_P2;Temp;Humidity;BMP_temperature;BMP_pressure;BME280_temperature;BME280_humidity;BME280_pressure;Samples;Min_cycle;Max_cycle;Signal;HPM_P1;HPM_P2
2023/02/10 00:01:09;;;;;;;15.18;14.00;;;;;;;;;;4994887;28;20035;-58
2023/02/10 00:03:35;;;;;;;13.38;12.25;;;;;;;;;;4993396;28;20698;-59
2023/02/10 00:06:02;;;;;;;14.15;13.05;;;;;;;;;;4996666;28;20116;-58
2023/02/10 00:08:28;;;;;;;12.57;11.57;;;;;;;;;;4997959;28;20040;-59
2023/02/10 00:11:01;;;;;;;12.90;11.90;;;;;;;;;;4997412;28;20061;-59
2023/02/10 00:13:28;;;;;;;12.25;11.38;;;;;;;;;;4997969;28;20668;-59
2023/02/10 00:15:53;;;;;;;12.15;11.05;;;;;;;;;;4998906;28;20112;-59
2023/02/10 00:18:20;;;;;;;10.65;9.85;;;;;;;;;;4997173;28;20030;-59
2023/02/10 00:20:45;;;;;;;13.63;12.63;;;;;;;;;;4997588;28;20511;-60
2023/02/10 00:23:10;;;;;;;11.80;10.93;;;;;;;;;;5000158;28;20077;-59
2023/02/10 00:25:36;;;;;;;17.02;14.80;;;;;;;;;;4998131;28;20045;-59
2023/02/10 00:28:02;;;;;;;10.93;10.20;;;;;;;;;;5000960;28;20068;-59
2023/02/10 00:30:28;;;;;;;12.30;11.38;;;;;;;;;;5000248;28;20223;-59
2023/02/10 00:32:53;;;;;;;13.10;12.02;;;;;;;;;;4998605;28;20137;-59
2023/02/10 00:35:19;;;;;;;12.15;11.23;;;;;;;;;;4992662;28;20704;-59
2023/02/10 00:37:44;;;;;;;14.02;11.93;;;;;;;;;;4997523;28;20511;-59
2023/02/10 00:40:10;;;;;;;12.45;11.52;;;;;;;;;;4998642;28;20097;-59
2023/02/10 00:42:35;;;;;;;12.45;11.43;;;;;;;;;;4999163;28;20033;-59
2023/02/10 00:45:00;;;;;;;12.75;11.65;;;;;;;;;;4995258;28;20096;-59
2023/02/10 00:47:26;;;;;;;13.02;11.65;;;;;;;;;;4997851;28;20109;-59
2023/02/10 00:49:52;;;;;;;12.60;11.70;;;;;;;;;;5000623;28;20042;-59
2023/02/10 00:52:18;;;;;;;11.10;10.30;;;;;;;;;;4997946;28;20057;-58
2023/02/10 00:54:43;;;;;;;12.55;11.65;;;;;;;;;;4998952;28;20057;-58
2023/02/10 00:57:09;;;;;;;11.75;10.85;;;;;;;;;;5001364;28;20064;-58
2023/02/10 00:59:34;;;;;;;12.90;11.85;;;;;;;;;;4998266;28;20487;-58
2023/02/10 01:02:00;;;;;;;13.00;11.73;;;;;;;;;;4997353;28;20035;-59
2023/02/10 01:04:25;;;;;;;12.40;11.40;;;;;;;;;;4995048;28;20095;-58
2023/02/10 01:06:50;;;;;;;11.93;11.02;;;;;;;;;;5000320;28;20444;-58
2023/02/10 01:09:17;;;;;;;13.20;12.10;;;;;;;;;;4995714;28;20408;-58
2023/02/10 01:11:43;;;;;;;10.57;9.68;;;;;;;;;;4994406;28;20034;-58
2023/02/10 01:14:08;;;;;;;13.07;11.93;;;;;;;;;;4995160;28;20518;-58
2023/02/10 01:16:33;;;;;;;12.93;12.02;;;;;;;;;;4996566;28;20108;-58
2023/02/10 01:19:00;;;;;;;10.57;9.88;;;;;;;;;;4996878;28;20109;-58
2023/02/10 01:21:25;;;;;;;13.50;12.48;;;;;;;;;;4996047;28;20092;-58
2023/02/10 01:23:50;;;;;;;12.55;11.65;;;;;;;;;;4993860;28;20037;-58
2023/02/10 01:26:16;;;;;;;12.23;11.38;;;;;;;;;;4997792;28;20034;-59
2023/02/10 01:28:41;;;;;;;13.70;12.50;;;;;;;;;;4997264;28;20029;-58
2023/02/10 01:31:13;;;;;;;12.32;11.43;;;;;;;;;;5001873;28;20484;-58
2023/02/10 01:33:41;;;;;;;11.98;11.07;;;;;;;;;;4994388;28;20085;-58
2023/02/10 01:36:09;;;;;;;12.95;12.00;;;;;;;;;;4996479;28;20154;-58
2023/02/10 01:38:35;;;;;;;12.27;11.38;;;;;;;;;;5004001;28;20034;-58
2023/02/10 01:41:00;;;;;;;11.68;10.88;;;;;;;;;;4994465;28;20038;-58
2023/02/10 01:43:26;;;;;;;11.77;10.93;;;;;;;;;;4997495;28;20045;-58
2023/02/10 01:45:51;;;;;;;13.25;12.15;;;;;;;;;;4998194;28;20399;-59
2023/02/10 01:48:18;;;;;;;11.15;10.35;;;;;;;;;;4997368;28;20731;-59
2023/02/10 01:50:56;;;;;;;12.77;11.80;;;;;;;;;;4996890;28;20401;-58
2023/02/10 01:53:23;;;;;;;13.73;12.55;;;;;;;;;;4996045;28;20057;-58
2023/02/10 01:55:53;;;;;;;12.07;11.18;;;;;;;;;;4995351;28;20038;-58
2023/02/10 01:58:21;;;;;;;13.93;12.60;;;;;;;;;;4994152;28;20586;-58
2023/02/10 02:00:47;;;;;;;12.77;11.88;;;;;;;;;;5003546;28;20035;-58
2023/02/10 02:03:13;;;;;;;16.55;11.10;;;;;;;;;;4997182;28;20034;-58
2023/02/10 02:05:43;;;;;;;13.75;12.45;;;;;;;;;;4996580;28;20034;-58
2023/02/10 02:08:16;;;;;;;14.88;13.48;;;;;;;;;;4994268;28;20099;-57
2023/02/10 02:11:00;;;;;;;12.77;11.55;;;;;;;;;;4998601;28;20042;-59
2023/02/10 02:13:38;;;;;;;11.48;10.60;;;;;;;;;;4995532;28;20060;-59
2023/02/10 02:16:28;;;;;;;11.00;10.10;;;;;;;;;;4997155;28;20034;-58
2023/02/10 02:19:00;;;;;;;12.13;10.85;;;;;;;;;;4996952;28;20039;-58
2023/02/10 02:21:54;;;;;;;14.70;13.32;;;;;;;;;;4993416;28;20044;-59
2023/02/10 02:24:20;;;;;;;12.52;11.32;;;;;;;;;;4994969;28;20053;-58
2023/02/10 02:26:48;;;;;;;12.60;11.50;;;;;;;;;;4998200;28;20034;-58
2023/02/10 02:29:42;;;;;;;18.38;14.27;;;;;;;;;;4998148;28;20033;-58
2023/02/10 02:32:26;;;;;;;17.40;15.52;;;;;;;;;;4997123;28;20044;-59
2023/02/10 02:35:17;;;;;;;14.02;12.80;;;;;;;;;;4995964;28;20038;-58
2023/02/10 02:37:44;;;;;;;13.02;12.13;;;;;;;;;;4995304;28;20030;-57
2023/02/10 02:40:12;;;;;;;13.20;12.00;;;;;;;;;;4995518;28;20150;-57
2023/02/10 02:42:37;;;;;;;28.80;15.38;;;;;;;;;;4996031;28;20056;-58
2023/02/10 02:45:05;;;;;;;15.35;14.05;;;;;;;;;;4995403;28;20046;-58
2023/02/10 02:47:46;;;;;;;15.07;13.75;;;;;;;;;;4996169;28;20134;-58
2023/02/10 02:50:32;;;;;;;17.00;15.43;;;;;;;;;;4992825;28;20037;-58
2023/02/10 02:53:10;;;;;;;17.00;15.68;;;;;;;;;;4994695;28;20042;-58
2023/02/10 02:55:45;;;;;;;21.42;15.55;;;;;;;;;;4996221;28;20464;-58
2023/02/10 02:58:23;;;;;;;15.27;13.73;;;;;;;;;;4997358;28;20048;-58
2023/02/10 03:00:51;;;;;;;14.43;13.38;;;;;;;;;;4994624;28;20041;-58
2023/02/10 03:03:17;;;;;;;15.73;14.52;;;;;;;;;;4997558;28;20031;-58
2023/02/10 03:05:42;;;;;;;15.65;13.90;;;;;;;;;;4995090;28;20121;-58
2023/02/10 03:08:08;;;;;;;16.88;13.23;;;;;;;;;;4995518;28;20587;-58
2023/02/10 03:10:33;;;;;;;14.57;13.38;;;;;;;;;;4996845;28;20147;-58
2023/02/10 03:12:58;;;;;;;16.83;14.65;;;;;;;;;;4997173;28;20085;-59
2023/02/10 03:15:24;;;;;;;12.95;12.05;;;;;;;;;;4996180;28;20065;-58
2023/02/10 03:17:49;;;;;;;13.75;12.82;;;;;;;;;;4997577;28;20341;-59
2023/02/10 03:20:15;;;;;;;12.95;12.00;;;;;;;;;;4996076;28;20598;-57
2023/02/10 03:22:41;;;;;;;12.20;10.95;;;;;;;;;;4995251;28;20519;-59
2023/02/10 03:25:07;;;;;;;12.60;11.60;;;;;;;;;;4993885;28;20053;-58
2023/02/10 03:27:32;;;;;;;14.45;13.27;;;;;;;;;;4994126;28;20038;-59
2023/02/10 03:29:58;;;;;;;13.68;12.68;;;;;;;;;;4996141;28;20046;-58
2023/02/10 03:32:23;;;;;;;12.50;11.63;;;;;;;;;;4994291;28;20443;-58
2023/02/10 03:34:49;;;;;;;13.10;12.00;;;;;;;;;;4994026;28;20449;-58
2023/02/10 03:37:14;;;;;;;12.77;11.88;;;;;;;;;;4995167;28;20034;-59
2023/02/10 03:39:39;;;;;;;12.82;11.90;;;;;;;;;;4993657;28;20053;-58
2023/02/10 03:42:05;;;;;;;14.55;13.43;;;;;;;;;;4996709;28;20647;-58
2023/02/10 03:44:30;;;;;;;13.10;12.15;;;;;;;;;;4999336;28;20037;-59
2023/02/10 03:46:55;;;;;;;13.10;11.27;;;;;;;;;;5000077;28;20218;-58
2023/02/10 03:49:21;;;;;;;12.13;11.25;;;;;;;;;;4998754;28;20033;-59
2023/02/10 03:51:46;;;;;;;9.98;9.27;;;;;;;;;;4997425;28;20475;-58
2023/02/10 03:54:12;;;;;;;10.77;10.02;;;;;;;;;;4998939;28;20443;-61
2023/02/10 03:56:37;;;;;;;11.80;10.93;;;;;;;;;;4994805;28;20041;-58
2023/02/10 03:59:04;;;;;;;13.02;11.70;;;;;;;;;;5005617;28;20610;-58
2023/02/10 04:01:29;;;;;;;12.75;11.80;;;;;;;;;;4999087;28;20626;-58
2023/02/10 04:03:54;;;;;;;11.70;10.90;;;;;;;;;;4996028;28;20116;-59
2023/02/10 04:06:20;;;;;;;12.82;11.82;;;;;;;;;;4997959;28;20042;-59
2023/02/10 04:08:47;;;;;;;14.23;13.23;;;;;;;;;;4996566;28;20053;-58
2023/02/10 04:11:13;;;;;;;12.10;11.30;;;;;;;;;;4997950;28;20034;-58
2023/02/10 04:13:39;;;;;;;12.63;11.73;;;;;;;;;;5000461;28;20343;-59
2023/02/10 04:16:10;;;;;;;13.07;11.82;;;;;;;;;;4997387;28;20144;-59
2023/02/10 04:18:37;;;;;;;12.40;11.57;;;;;;;;;;4998784;28;20057;-58
2023/02/10 04:21:04;;;;;;;14.73;13.63;;;;;;;;;;5002867;28;20077;-58
2023/02/10 04:23:30;;;;;;;13.32;12.32;;;;;;;;;;4996739;28;20099;-59
2023/02/10 04:25:55;;;;;;;13.63;12.43;;;;;;;;;;4995795;28;20038;-58
2023/02/10 04:28:21;;;;;;;13.25;12.15;;;;;;;;;;4995979;28;20033;-59
2023/02/10 04:30:50;;;;;;;14.50;13.13;;;;;;;;;;4996330;28;20042;-59
2023/02/10 04:33:15;;;;;;;13.38;12.38;;;;;;;;;;4995978;28;20487;-57
2023/02/10 04:35:41;;;;;;;13.68;11.63;;;;;;;;;;4996440;28;20038;-58
2023/02/10 04:38:06;;;;;;;14.00;12.77;;;;;;;;;;4998633;28;20057;-57
2023/02/10 04:40:32;;;;;;;14.93;13.63;;;;;;;;;;4996367;28;20030;-58
2023/02/10 04:42:57;;;;;;;13.15;11.82;;;;;;;;;;5003040;28;20034;-58
2023/02/10 04:45:22;;;;;;;11.73;10.80;;;;;;;;;;4998114;28;20070;-58
2023/02/10 04:47:48;;;;;;;12.25;11.32;;;;;;;;;;4996915;28;20317;-58
2023/02/10 04:50:13;;;;;;;14.98;13.70;;;;;;;;;;4996918;28;20204;-58
2023/02/10 04:52:38;;;;;;;13.73;12.55;;;;;;;;;;4998920;28;20475;-58
2023/02/10 04:55:04;;;;;;;12.85;11.93;;;;;;;;;;5002049;28;20534;-59
2023/02/10 04:57:29;;;;;;;12.98;11.88;;;;;;;;;;4996481;28;20073;-58
2023/02/10 04:59:55;;;;;;;13.48;12.48;;;;;;;;;;4996853;28;20118;-59
2023/02/10 05:02:21;;;;;;;16.55;13.90;;;;;;;;;;4996629;28;20041;-59
2023/02/10 05:04:46;;;;;;;13.65;12.63;;;;;;;;;;5003065;28;20108;-58
2023/02/10 05:07:11;;;;;;;14.23;13.00;;;;;;;;;;4999178;28;20038;-59
2023/02/10 05:09:37;;;;;;;14.93;13.70;;;;;;;;;;4995470;28;20301;-58
2023/02/10 05:12:02;;;;;;;12.55;11.55;;;;;;;;;;4996048;28;20502;-59
2023/02/10 05:14:28;;;;;;;13.63;12.38;;;;;;;;;;4995834;28;20230;-58
2023/02/10 05:16:53;;;;;;;13.38;12.02;;;;;;;;;;4998812;28;20033;-59
2023/02/10 05:19:18;;;;;;;12.02;11.23;;;;;;;;;;4997436;28;20042;-59
2023/02/10 05:21:44;;;;;;;14.73;13.57;;;;;;;;;;4996608;28;20030;-59
2023/02/10 05:24:09;;;;;;;13.07;11.90;;;;;;;;;;5001882;28;20076;-59
2023/02/10 05:26:35;;;;;;;14.45;13.32;;;;;;;;;;4997824;28;20105;-59
2023/02/10 05:29:00;;;;;;;13.75;12.60;;;;;;;;;;4996158;28;20104;-59
2023/02/10 05:31:25;;;;;;;15.05;13.65;;;;;;;;;;4996155;28;20034;-59
2023/02/10 05:33:53;;;;;;;13.25;12.25;;;;;;;;;;4996888;28;20041;-59
2023/02/10 05:36:18;;;;;;;14.55;13.30;;;;;;;;;;4995581;28;20469;-59
2023/02/10 05:39:22;;;;;;;13.77;12.77;;;;;;;;;;4998512;28;20191;-58
2023/02/10 05:41:29;;;;;;;14.68;13.50;;;;;;;;;;4997062;28;20034;-58
2023/02/10 05:43:55;;;;;;;12.73;11.85;;;;;;;;;;4998305;28;20352;-59
2023/02/10 05:46:20;;;;;;;13.38;12.38;;;;;;;;;;4998228;28;20034;-59
2023/02/10 05:48:45;;;;;;;14.15;12.93;;;;;;;;;;5003303;28;20375;-58
2023/02/10 05:51:11;;;;;;;12.38;11.38;;;;;;;;;;4998735;28;20100;-59
2023/02/10 05:53:36;;;;;;;20.90;14.95;;;;;;;;;;4996115;28;20543;-59
2023/02/10 05:56:01;;;;;;;13.57;12.57;;;;;;;;;;4995724;28;20124;-59
2023/02/10 05:58:27;;;;;;;14.23;13.02;;;;;;;;;;4996032;28;20566;-58
2023/02/10 06:00:53;;;;;;;12.10;11.20;;;;;;;;;;4995952;28;20669;-49
2023/02/10 06:03:18;;;;;;;12.38;11.40;;;;;;;;;;4996873;28;20051;-51
2023/02/10 06:05:45;;;;;;;11.80;11.00;;;;;;;;;;4995030;28;20157;-49
2023/02/10 06:08:10;;;;;;;13.07;12.05;;;;;;;;;;4987012;28;20034;-49
2023/02/10 06:10:36;;;;;;;13.13;11.93;;;;;;;;;;4992151;28;20053;-49
2023/02/10 06:13:01;;;;;;;14.35;13.35;;;;;;;;;;4997125;28;20049;-47
2023/02/10 06:15:26;;;;;;;13.98;12.98;;;;;;;;;;4994723;28;20170;-49
2023/02/10 06:17:52;;;;;;;12.95;11.93;;;;;;;;;;4995264;28;20038;-48
2023/02/10 06:20:17;;;;;;;15.60;14.27;;;;;;;;;;4999611;28;20114;-50
2023/02/10 06:22:43;;;;;;;13.30;12.32;;;;;;;;;;4999591;28;20128;-50
2023/02/10 06:25:08;;;;;;;14.60;13.25;;;;;;;;;;4997327;28;20404;-48
2023/02/10 06:27:33;;;;;;;12.80;11.80;;;;;;;;;;4996832;28;20050;-47
2023/02/10 06:29:59;;;;;;;15.05;12.25;;;;;;;;;;4993629;28;20041;-49
2023/02/10 06:32:24;;;;;;;12.80;11.80;;;;;;;;;;4994706;28;20048;-50
2023/02/10 06:34:49;;;;;;;11.82;11.02;;;;;;;;;;4994653;28;20459;-48
2023/02/10 06:37:15;;;;;;;12.85;11.90;;;;;;;;;;4995845;28;20638;-49
2023/02/10 06:39:40;;;;;;;15.50;13.93;;;;;;;;;;4993050;28;20042;-51
2023/02/10 06:42:06;;;;;;;14.25;13.10;;;;;;;;;;4997027;28;20033;-49
2023/02/10 06:44:31;;;;;;;15.63;13.52;;;;;;;;;;4994706;28;20121;-51
2023/02/10 06:46:56;;;;;;;12.70;11.80;;;;;;;;;;4995118;28;20380;-48
2023/02/10 06:49:22;;;;;;;12.82;11.82;;;;;;;;;;4996370;28;20045;-47
2023/02/10 06:51:47;;;;;;;13.02;12.05;;;;;;;;;;4996686;28;20120;-48
2023/02/10 06:54:12;;;;;;;14.23;13.07;;;;;;;;;;4994866;28;20026;-47
2023/02/10 06:56:39;;;;;;;12.82;11.65;;;;;;;;;;4995383;28;20508;-49
2023/02/10 06:59:04;;;;;;;13.05;11.77;;;;;;;;;;4994194;28;20022;-48
2023/02/10 07:01:30;;;;;;;13.10;11.93;;;;;;;;;;4994997;28;20034;-47
2023/02/10 07:03:55;;;;;;;13.23;12.23;;;;;;;;;;4995098;28;20034;-48
2023/02/10 07:06:21;;;;;;;12.63;11.68;;;;;;;;;;4996526;28;20049;-49
2023/02/10 07:08:46;;;;;;;15.02;13.68;;;;;;;;;;4992312;28;20044;-48
2023/02/10 07:11:12;;;;;;;14.38;13.15;;;;;;;;;;4995461;28;20147;-47
2023/02/10 07:13:37;;;;;;;14.80;13.63;;;;;;;;;;4997844;28;20046;-47
2023/02/10 07:16:03;;;;;;;14.20;13.02;;;;;;;;;;4997713;28;20034;-48
2023/02/10 07:18:29;;;;;;;13.30;12.20;;;;;;;;;;4998079;28;20034;-50
2023/02/10 07:20:55;;;;;;;11.80;10.95;;;;;;;;;;4999596;28;20169;-51
2023/02/10 07:23:21;;;;;;;13.82;11.35;;;;;;;;;;4998662;28;20112;-50
2023/02/10 07:25:46;;;;;;;11.00;10.20;;;;;;;;;;4996783;28;20042;-47
2023/02/10 07:28:11;;;;;;;13.18;12.15;;;;;;;;;;5000667;28;20121;-49
2023/02/10 07:30:37;;;;;;;15.75;12.65;;;;;;;;;;4999523;28;20483;-51
2023/02/10 07:33:03;;;;;;;12.57;11.65;;;;;;;;;;5000751;28;20037;-51
2023/02/10 07:35:28;;;;;;;13.23;12.18;;;;;;;;;;5001718;28;20022;-51
2023/02/10 07:37:53;;;;;;;22.05;13.80;;;;;;;;;;4999724;28;20379;-50
2023/02/10 07:40:19;;;;;;;14.07;12.93;;;;;;;;;;4996948;28;20040;-47
2023/02/10 07:42:44;;;;;;;12.18;11.32;;;;;;;;;;4998849;28;20434;-50
2023/02/10 07:45:10;;;;;;;17.13;14.32;;;;;;;;;;4995920;28;20030;-48
2023/02/10 07:47:36;;;;;;;14.85;12.35;;;;;;;;;;4999739;28;20045;-51
2023/02/10 07:50:01;;;;;;;11.50;10.70;;;;;;;;;;4994938;28;20088;-47
2023/02/10 07:52:27;;;;;;;16.30;14.88;;;;;;;;;;5003663;28;20613;-48
2023/02/10 07:54:52;;;;;;;14.88;13.73;;;;;;;;;;4995533;28;20038;-46
2023/02/10 07:57:18;;;;;;;12.25;11.35;;;;;;;;;;4997917;28;20091;-46
2023/02/10 07:59:43;;;;;;;14.75;13.27;;;;;;;;;;4997894;28;20046;-50
2023/02/10 08:02:10;;;;;;;12.93;11.88;;;;;;;;;;5001535;28;20049;-47
2023/02/10 08:04:35;;;;;;;13.23;11.95;;;;;;;;;;5000515;28;20072;-48
2023/02/10 08:07:01;;;;;;;13.40;12.25;;;;;;;;;;5001731;28;20038;-48
2023/02/10 08:09:26;;;;;;;13.60;12.48;;;;;;;;;;4996279;28;20049;-47
2023/02/10 08:11:51;;;;;;;13.85;12.82;;;;;;;;;;4997613;28;20046;-47
2023/02/10 08:14:17;;;;;;;12.88;11.65;;;;;;;;;;4999267;28;20038;-46
2023/02/10 08:16:42;;;;;;;13.20;12.07;;;;;;;;;;5000200;28;20037;-47
2023/02/10 08:19:07;;;;;;;13.60;12.55;;;;;;;;;;5000641;28;20046;-49
2023/02/10 08:21:33;;;;;;;14.57;12.65;;;;;;;;;;5001759;28;20053;-49
2023/02/10 08:23:58;;;;;;;13.90;12.75;;;;;;;;;;4995343;28;20113;-47
2023/02/10 08:26:24;;;;;;;14.07;12.60;;;;;;;;;;4997052;28;20144;-46
2023/02/10 08:28:50;;;;;;;15.77;14.38;;;;;;;;;;4997620;28;20072;-50
2023/02/10 08:31:16;;;;;;;12.85;11.95;;;;;;;;;;5002999;28;20396;-47
2023/02/10 08:33:42;;;;;;;13.68;12.43;;;;;;;;;;4994999;28;20041;-48
2023/02/10 08:36:10;;;;;;;14.27;12.50;;;;;;;;;;5006584;28;20059;-48
2023/02/10 08:38:36;;;;;;;13.15;12.25;;;;;;;;;;4995797;28;20246;-47
2023/02/10 08:41:02;;;;;;;14.95;13.38;;;;;;;;;;4997608;28;20365;-47
2023/02/10 08:43:27;;;;;;;14.13;13.13;;;;;;;;;;4995667;28;20033;-51
2023/02/10 08:46:00;;;;;;;15.73;14.13;;;;;;;;;;4997478;28;20046;-46
2023/02/10 08:48:26;;;;;;;13.55;12.25;;;;;;;;;;4999027;28;20585;-46
2023/02/10 08:50:53;;;;;;;15.25;13.85;;;;;;;;;;4996450;28;20376;-48
2023/02/10 08:53:20;;;;;;;12.85;11.88;;;;;;;;;;4998528;28;20038;-47
2023/02/10 08:55:56;;;;;;;15.35;11.57;;;;;;;;;;4994456;28;20121;-48
2023/02/10 08:58:21;;;;;;;13.77;12.73;;;;;;;;;;4999830;28;20045;-48
2023/02/10 09:00:46;;;;;;;15.20;13.90;;;;;;;;;;4996459;28;20068;-50
2023/02/10 09:03:12;;;;;;;14.45;13.05;;;;;;;;;;4996734;28;20388;-56
2023/02/10 09:05:37;;;;;;;14.98;13.98;;;;;;;;;;4998368;28;20034;-48
2023/02/10 09:08:03;;;;;;;14.75;13.48;;;;;;;;;;4997648;28;20196;-48
2023/02/10 09:10:29;;;;;;;13.85;12.65;;;;;;;;;;5012321;28;20033;-48
2023/02/10 09:12:54;;;;;;;13.55;12.45;;;;;;;;;;4995129;28;20071;-47
2023/02/10 09:15:20;;;;;;;13.10;12.00;;;;;;;;;;4996957;28;20033;-49
2023/02/10 09:17:45;;;;;;;12.55;11.65;;;;;;;;;;4997498;28;20054;-51
2023/02/10 09:20:11;;;;;;;13.63;12.52;;;;;;;;;;4997612;28;20061;-51
2023/02/10 09:22:36;;;;;;;12.75;11.82;;;;;;;;;;4996842;28;20387;-47
2023/02/10 09:25:02;;;;;;;15.88;14.43;;;;;;;;;;4996969;28;20049;-47
2023/02/10 09:27:27;;;;;;;14.73;13.45;;;;;;;;;;4996080;28;20444;-48
2023/02/10 09:29:53;;;;;;;13.38;12.13;;;;;;;;;;4994653;28;20038;-48
2023/02/10 09:32:19;;;;;;;13.93;12.48;;;;;;;;;;4996182;28;20057;-47
2023/02/10 09:34:45;;;;;;;12.27;11.27;;;;;;;;;;4996418;28;20063;-49
2023/02/10 09:37:10;;;;;;;14.32;13.32;;;;;;;;;;4995146;28;20033;-47
2023/02/10 09:39:38;;;;;;;12.52;11.60;;;;;;;;;;4996444;28;20044;-47
2023/02/10 09:42:13;;;;;;;13.23;12.13;;;;;;;;;;4994942;28;20042;-47
2023/02/10 09:44:51;;;;;;;12.80;11.85;;;;;;;;;;4995626;28;20042;-50
2023/02/10 09:47:38;;;;;;;13.75;12.70;;;;;;;;;;4996600;28;20478;-49
2023/02/10 09:50:33;;;;;;;14.82;13.57;;;;;;;;;;4992799;28;20038;-52
2023/02/10 09:53:10;;;;;;;13.98;12.68;;;;;;;;;;4996649;28;20118;-49
2023/02/10 09:55:57;;;;;;;14.63;13.20;;;;;;;;;;4999413;28;20030;-51
2023/02/10 09:58:46;;;;;;;14.65;13.35;;;;;;;;;;4998814;28;20041;-49
2023/02/10 10:01:43;;;;;;;14.00;12.75;;;;;;;;;;5043800;28;20841;-49
2023/02/10 10:04:17;;;;;;;13.88;12.63;;;;;;;;;;5033530;28;20041;-47
2023/02/10 10:06:49;;;;;;;13.82;12.73;;;;;;;;;;5028897;28;20033;-48
2023/02/10 10:09:41;;;;;;;14.82;13.75;;;;;;;;;;5031107;28;20815;-47
2023/02/10 10:12:16;;;;;;;16.45;15.27;;;;;;;;;;5030760;28;20034;-47
2023/02/10 10:14:45;;;;;;;16.40;15.02;;;;;;;;;;5030104;28;20154;-46
2023/02/10 10:17:29;;;;;;;15.52;14.32;;;;;;;;;;5028386;28;20036;-47
2023/02/10 10:20:13;;;;;;;16.13;14.50;;;;;;;;;;5029535;28;20091;-46
2023/02/10 10:22:59;;;;;;;13.13;12.23;;;;;;;;;;5029191;28;20037;-49
2023/02/10 10:25:50;;;;;;;15.60;14.32;;;;;;;;;;5029348;28;20044;-48
2023/02/10 10:28:41;;;;;;;14.15;12.82;;;;;;;;;;5031323;28;20140;-46
2023/02/10 10:31:14;;;;;;;14.82;13.82;;;;;;;;;;5032142;28;20044;-52
2023/02/10 10:34:18;;;;;;;14.00;13.10;;;;;;;;;;5032023;28;20068;-50
2023/02/10 10:36:49;;;;;;;16.38;14.98;;;;;;;;;;5016627;28;20041;-45
2023/02/10 10:40:00;;;;;;;16.63;15.48;;;;;;;;;;5029743;28;20046;-49
2023/02/10 10:42:40;;;;;;;18.35;16.15;;;;;;;;;;5027705;28;20050;-46
2023/02/10 10:45:13;;;;;;;17.17;15.98;;;;;;;;;;5031209;28;20032;-48
2023/02/10 10:47:47;;;;;;;18.20;16.80;;;;;;;;;;5029378;28;20104;-46
2023/02/10 10:50:19;;;;;;;17.92;16.52;;;;;;;;;;5030412;28;20108;-50
2023/02/10 10:52:51;;;;;;;16.33;15.15;;;;;;;;;;5032809;28;20056;-49
2023/02/10 10:55:32;;;;;;;17.42;16.10;;;;;;;;;;5031290;28;20037;-50
2023/02/10 10:58:00;;;;;;;17.73;16.40;;;;;;;;;;5030842;28;20036;-51
2023/02/10 11:00:28;;;;;;;18.70;17.27;;;;;;;;;;5028022;28;20039;-48
2023/02/10 11:03:01;;;;;;;17.00;15.75;;;;;;;;;;5029967;28;20056;-48
2023/02/10 11:05:30;;;;;;;18.63;16.80;;;;;;;;;;5031627;28;20037;-47
2023/02/10 11:07:57;;;;;;;15.95;14.82;;;;;;;;;;5028994;28;20492;-50
2023/02/10 11:10:50;;;;;;;14.68;13.65;;;;;;;;;;5035236;28;20037;-47
2023/02/10 11:13:21;;;;;;;21.40;14.57;;;;;;;;;;5010549;28;20049;-47
2023/02/10 11:15:47;;;;;;;15.68;14.57;;;;;;;;;;5016801;28;20025;-50
2023/02/10 11:18:19;;;;;;;17.98;16.55;;;;;;;;;;5031824;28;20486;-49
2023/02/10 11:20:54;;;;;;;15.60;14.60;;;;;;;;;;5018400;28;20030;-48
2023/02/10 11:23:20;;;;;;;18.52;16.90;;;;;;;;;;5016555;28;20065;-50
2023/02/10 11:25:54;;;;;;;17.55;16.25;;;;;;;;;;5016375;28;20066;-47
2023/02/10 11:28:23;;;;;;;19.38;14.32;;;;;;;;;;5014617;28;20049;-48
2023/02/10 11:30:59;;;;;;;18.67;17.17;;;;;;;;;;5020155;28;20045;-48
2023/02/10 11:33:29;;;;;;;16.73;15.57;;;;;;;;;;5017714;28;20033;-49
2023/02/10 11:36:05;;;;;;;15.82;14.57;;;;;;;;;;5014191;28;20368;-46
2023/02/10 11:38:31;;;;;;;17.30;16.00;;;;;;;;;;5017656;28;20048;-48
2023/02/10 11:41:04;;;;;;;16.30;15.10;;;;;;;;;;5017562;28;20344;-47
2023/02/10 11:43:43;;;;;;;17.15;15.93;;;;;;;;;;5016592;28;20053;-49
2023/02/10 11:46:27;;;;;;;17.45;16.15;;;;;;;;;;5015444;28;20501;-47
2023/02/10 11:49:01;;;;;;;16.40;15.20;;;;;;;;;;5018288;28;20060;-48
2023/02/10 11:51:29;;;;;;;18.27;16.42;;;;;;;;;;5016844;28;20147;-52
2023/02/10 11:53:55;;;;;;;17.90;16.63;;;;;;;;;;5017686;28;20044;-51
2023/02/10 11:58:58;;;;;;;16.15;14.90;;;;;;;;;;5016006;28;20372;-51
2023/02/10 11:59:24;;;;;;;16.25;15.07;;;;;;;;;;5017960;28;20370;-47
2023/02/10 12:01:56;;;;;;;15.20;14.20;;;;;;;;;;5017689;28;20120;-48
2023/02/10 12:04:45;;;;;;;15.10;14.07;;;;;;;;;;5015191;28;20505;-49
2023/02/10 12:07:32;;;;;;;17.30;15.75;;;;;;;;;;5020278;28;20038;-46
2023/02/10 12:10:39;;;;;;;15.98;14.68;;;;;;;;;;5014556;28;20129;-48
2023/02/10 12:13:42;;;;;;;18.38;16.77;;;;;;;;;;5016529;28;20052;-48
2023/02/10 12:16:29;;;;;;;15.63;14.55;;;;;;;;;;5015597;28;20042;-51
2023/02/10 12:18:57;;;;;;;15.63;14.52;;;;;;;;;;5014467;28;20996;-49
2023/02/10 12:21:43;;;;;;;17.70;15.93;;;;;;;;;;5014530;28;20049;-48
2023/02/10 12:24:27;;;;;;;14.00;13.10;;;;;;;;;;5015749;28;20037;-50
2023/02/10 12:27:07;;;;;;;14.55;13.25;;;;;;;;;;5014912;28;20049;-50
2023/02/10 12:30:01;;;;;;;17.10;15.90;;;;;;;;;;5017162;28;20029;-49
2023/02/10 12:33:00;;;;;;;18.65;15.23;;;;;;;;;;4982965;28;20086;-51
2023/02/10 12:35:35;;;;;;;14.18;13.02;;;;;;;;;;4957350;28;20041;-47
2023/02/10 12:38:35;;;;;;;17.73;16.17;;;;;;;;;;4959583;28;20031;-49
2023/02/10 12:41:25;;;;;;;15.73;14.30;;;;;;;;;;4898290;29;20555;-47
2023/02/10 12:44:02;;;;;;;13.80;12.63;;;;;;;;;;4955803;28;20043;-48
2023/02/10 12:46:33;;;;;;;14.75;13.60;;;;;;;;;;4957736;28;20042;-49
2023/02/10 12:49:01;;;;;;;14.55;13.45;;;;;;;;;;4955442;28;20114;-50
2023/02/10 12:51:45;;;;;;;16.85;15.38;;;;;;;;;;4960616;28;20130;-58
2023/02/10 12:54:17;;;;;;;14.63;13.68;;;;;;;;;;4960292;28;20039;-58
2023/02/10 12:56:48;;;;;;;15.75;14.55;;;;;;;;;;4960517;28;20114;-59
2023/02/10 12:59:16;;;;;;;;;;;;;;;;;;4960463;28;20433;-59
2023/02/10 13:01:49;;;;;;;16.10;14.80;;;;;;;;;;4960636;28;19925;-58
2023/02/10 13:04:25;;;;;;;14.70;13.23;;;;;;;;;;4957595;28;20034;-58
2023/02/10 13:06:59;;;;;;;15.30;14.13;;;;;;;;;;4956112;28;20086;-58
2023/02/10 13:10:06;;;;;;;15.38;14.05;;;;;;;;;;4958525;28;20522;-59
2023/02/10 13:12:36;;;;;;;20.13;14.68;;;;;;;;;;4936652;28;20082;-58
2023/02/10 13:15:27;;;;;;;14.40;13.43;;;;;;;;;;4952612;28;20054;-58
2023/02/10 13:17:53;;;;;;;14.80;13.52;;;;;;;;;;4938756;28;20047;-59
2023/02/10 13:20:28;;;;;;;16.00;14.70;;;;;;;;;;4956548;28;20421;-59
2023/02/10 13:23:03;;;;;;;14.82;13.52;;;;;;;;;;4956718;28;20102;-59
2023/02/10 13:26:06;;;;;;;15.40;14.23;;;;;;;;;;4957072;28;20413;-58
2023/02/10 13:28:46;;;;;;;14.77;13.85;;;;;;;;;;4955365;28;20134;-47
2023/02/10 13:31:18;;;;;;;15.40;14.02;;;;;;;;;;4954112;28;20024;-48
2023/02/10 13:33:54;;;;;;;15.57;14.38;;;;;;;;;;4955345;28;20043;-59
2023/02/10 13:36:28;;;;;;;15.27;14.10;;;;;;;;;;4958760;28;20035;-58
2023/02/10 13:39:21;;;;;;;16.38;15.15;;;;;;;;;;4954067;28;20377;-58
2023/02/10 13:41:50;;;;;;;14.60;13.27;;;;;;;;;;4954099;28;20114;-51
2023/02/10 13:44:29;;;;;;;16.42;14.98;;;;;;;;;;4953324;28;20105;-59
2023/02/10 13:47:16;;;;;;;14.73;13.73;;;;;;;;;;4957083;28;20046;-58
2023/02/10 13:49:56;;;;;;;13.02;12.13;;;;;;;;;;4949869;28;20047;-58
2023/02/10 13:52:27;;;;;;;13.55;12.55;;;;;;;;;;4953536;28;20195;-59
2023/02/10 13:55:15;;;;;;;15.90;14.70;;;;;;;;;;4956213;28;20038;-58
2023/02/10 13:57:52;;;;;;;14.55;13.45;;;;;;;;;;4955179;28;20133;-58
2023/02/10 14:00:20;;;;;;;15.57;14.43;;;;;;;;;;4956135;28;20579;-58
2023/02/10 14:03:09;;;;;;;14.82;13.73;;;;;;;;;;4954977;28;20101;-58
2023/02/10 14:05:37;;;;;;;15.48;14.18;;;;;;;;;;4950211;28;20105;-58
2023/02/10 14:08:42;;;;;;;15.52;14.35;;;;;;;;;;4955971;28;20507;-59
2023/02/10 14:11:35;;;;;;;17.15;15.95;;;;;;;;;;4946819;28;20059;-58
2023/02/10 14:14:06;;;;;;;16.02;14.75;;;;;;;;;;4952019;28;20071;-59
2023/02/10 14:16:38;;;;;;;16.13;14.88;;;;;;;;;;4954101;28;20039;-58
2023/02/10 14:19:19;;;;;;;16.20;14.88;;;;;;;;;;4957210;28;20039;-58
2023/02/10 14:21:46;;;;;;;15.32;13.90;;;;;;;;;;4955900;28;20054;-58
2023/02/10 14:24:16;;;;;;;16.13;14.68;;;;;;;;;;4951647;28;20034;-59
2023/02/10 14:26:44;;;;;;;16.48;15.20;;;;;;;;;;4956136;28;20034;-59
2023/02/10 14:29:13;;;;;;;14.85;13.57;;;;;;;;;;4955647;28;20049;-61
2023/02/10 14:31:40;;;;;;;16.77;15.30;;;;;;;;;;4953392;28;20046;-59
2023/02/10 14:34:17;;;;;;;15.07;13.75;;;;;;;;;;4954486;28;20414;-59
2023/02/10 14:36:54;;;;;;;15.93;14.63;;;;;;;;;;4955949;28;20031;-59
2023/02/10 14:39:24;;;;;;;14.25;13.15;;;;;;;;;;4958671;28;20130;-59